Time;durP1;ratioP1;P1;durP2;ratioP2;P2;SDS_P1;SDS_P2;PMS_P1;PMS_P2;Temp;Humidity;BMP_temperature;BMP_pressure;BME280_temperature;BME280_humidity;BME280_pressure;Samples;Min_cycle;Max_cycle;Signal;HPM_P1;HPM_P2
2022/06/13 00:02:11;;;;;;;8.05;3.30;;;;;;;20.76;100.00;100301.56;5033241;28;20033;-63
2022/06/13 00:04:37;;;;;;;7.20;3.10;;;;;;;20.75;100.00;100307.97;5033397;28;20070;-63
2022/06/13 00:07:03;;;;;;;6.65;3.55;;;;;;;20.75;100.00;100317.91;5032061;28;20029;-63
2022/06/13 00:09:28;;;;;;;8.40;3.95;;;;;;;20.79;100.00;100314.88;5032893;28;20029;-63
2022/06/13 00:11:54;;;;;;;6.72;3.35;;;;;;;20.76;100.00;100315.09;5033124;28;20116;-64
2022/06/13 00:14:20;;;;;;;6.50;3.22;;;;;;;20.78;100.00;100310.44;5035692;28;20032;-64
2022/06/13 00:16:46;;;;;;;6.85;3.40;;;;;;;20.72;100.00;100302.75;5057671;28;20488;-63
2022/06/13 00:19:11;;;;;;;8.50;3.38;;;;;;;20.75;100.00;100302.56;5072736;28;20028;-63
2022/06/13 00:21:37;;;;;;;8.02;3.28;;;;;;;20.77;100.00;100303.28;5072877;28;20024;-63
2022/06/13 00:24:05;;;;;;;6.25;3.83;;;;;;;20.70;100.00;100299.31;5072443;28;20039;-63
2022/06/13 00:26:32;;;;;;;5.70;3.17;;;;;;;20.78;100.00;100302.34;5072842;28;20029;-63
2022/06/13 00:28:58;;;;;;;7.57;3.53;;;;;;;20.51;100.00;100304.22;5058608;28;20401;-63
2022/06/13 00:31:23;;;;;;;7.05;2.75;;;;;;;20.32;100.00;100311.88;5032833;28;20040;-63
2022/06/13 00:33:49;;;;;;;7.50;3.83;;;;;;;20.28;100.00;100304.94;5032664;28;20447;-64
2022/06/13 00:36:16;;;;;;;7.80;3.53;;;;;;;20.27;100.00;100308.59;5032597;28;20378;-64
2022/06/13 00:38:42;;;;;;;8.30;3.58;;;;;;;20.24;100.00;100303.41;5032458;28;20369;-63
2022/06/13 00:41:14;;;;;;;6.38;3.67;;;;;;;20.19;100.00;100310.97;5032600;28;20080;-63
2022/06/13 00:43:41;;;;;;;6.40;3.67;;;;;;;20.42;100.00;100312.09;5044246;28;20021;-63
2022/06/13 00:46:17;;;;;;;6.32;3.50;;;;;;;20.51;100.00;100311.50;5032415;28;20417;-63
2022/06/13 00:48:43;;;;;;;5.38;3.50;;;;;;;20.55;100.00;100294.94;5037738;28;20545;-63
2022/06/13 00:51:09;;;;;;;7.45;3.72;;;;;;;20.57;100.00;100306.53;5032576;28;20022;-63
2022/06/13 00:53:36;;;;;;;7.00;3.75;;;;;;;20.59;100.00;100319.94;5032294;28;20362;-63
2022/06/13 00:56:06;;;;;;;7.72;4.28;;;;;;;20.59;100.00;100312.66;5034299;28;20509;-63
2022/06/13 00:58:38;;;;;;;6.65;3.78;;;;;;;20.56;100.00;100315.59;5030893;28;20116;-63
2022/06/13 01:01:04;;;;;;;6.18;3.88;;;;;;;20.57;100.00;100321.88;5032630;28;20100;-63
2022/06/13 01:03:33;;;;;;;8.30;4.13;;;;;;;20.53;100.00;100318.50;5032024;28;20040;-63
2022/06/13 01:06:02;;;;;;;6.35;3.65;;;;;;;20.46;100.00;100302.84;5032288;28;20064;-63
2022/06/13 01:08:31;;;;;;;5.88;3.30;;;;;;;20.48;100.00;100309.84;5031968;28;20513;-63
2022/06/13 01:11:17;;;;;;;7.13;3.10;;;;;;;20.46;100.00;100302.84;5032052;28;20065;-63
2022/06/13 01:14:01;;;;;;;6.50;3.13;;;;;;;20.35;100.00;100297.28;5032027;28;20489;-63
2022/06/13 01:16:53;;;;;;;6.30;3.47;;;;;;;20.29;100.00;100305.81;5036613;28;20111;-63
2022/06/13 01:19:37;;;;;;;6.40;3.67;;;;;;;20.29;100.00;100312.09;5071237;28;20396;-63
2022/06/13 01:22:39;;;;;;;8.70;3.85;;;;;;;20.27;100.00;100311.31;5069957;28;20028;-63
2022/06/13 01:25:38;;;;;;;7.13;4.07;;;;;;;20.26;100.00;100308.72;5069794;28;20028;-63
2022/06/13 01:28:41;;;;;;;6.13;3.55;;;;;;;20.32;100.00;100316.41;5069959;28;20472;-63
2022/06/13 01:31:14;;;;;;;6.15;3.70;;;;;;;20.32;100.00;100317.28;5029910;28;20030;-63
2022/06/13 01:33:54;;;;;;;6.75;3.38;;;;;;;20.32;100.00;100317.28;5030013;28;20068;-63
2022/06/13 01:36:41;;;;;;;4.60;3.08;;;;;;;20.20;100.00;100320.78;5031905;28;20168;-63
2022/06/13 01:39:21;;;;;;;6.03;3.92;;;;;;;20.16;100.00;100324.69;5031492;28;20025;-63
2022/06/13 01:42:10;;;;;;;6.72;3.70;;;;;;;20.15;100.00;100325.63;5031699;28;20032;-63
2022/06/13 01:44:44;;;;;;;6.60;3.92;;;;;;;20.11;100.00;100329.50;5031499;28;20064;-63
2022/06/13 01:47:17;;;;;;;6.75;4.00;;;;;;;20.08;100.00;100324.28;5031693;28;20397;-63
2022/06/13 01:49:46;;;;;;;8.93;3.72;;;;;;;20.05;100.00;100320.94;5033794;28;20116;-63
2022/06/13 01:52:40;;;;;;;9.15;4.30;;;;;;;20.05;100.00;100320.94;5031653;28;20083;-63
2022/06/13 01:55:18;;;;;;;8.23;3.75;;;;;;;20.03;100.00;100326.41;5030298;28;20041;-63
2022/06/13 01:57:56;;;;;;;6.07;3.72;;;;;;;20.04;100.00;100325.47;5031328;28;20037;-63
2022/06/13 02:00:31;;;;;;;8.20;3.72;;;;;;;19.93;100.00;100308.22;5031361;28;20021;-63
2022/06/13 02:03:18;;;;;;;7.60;3.55;;;;;;;20.01;100.00;100327.50;5031379;28;20025;-63
2022/06/13 02:05:51;;;;;;;7.10;3.95;;;;;;;20.05;100.00;100324.47;5031460;28;20052;-63
2022/06/13 02:08:28;;;;;;;7.72;4.15;;;;;;;20.07;100.00;100322.53;5031142;28;20077;-63
2022/06/13 02:10:59;;;;;;;7.05;3.72;;;;;;;20.07;100.00;100318.97;5031358;28;20033;-63
2022/06/13 02:13:34;;;;;;;6.43;4.10;;;;;;;20.00;100.00;100305.00;5031276;28;20075;-63
2022/06/13 02:16:08;;;;;;;7.65;4.00;;;;;;;20.05;100.00;100308.28;5033878;28;20523;-63
2022/06/13 02:18:39;;;;;;;7.05;3.83;;;;;;;20.03;100.00;100314.75;5070496;28;20060;-63
2022/06/13 02:21:09;;;;;;;7.95;4.15;;;;;;;19.99;100.00;100322.19;5071201;28;20032;-63
2022/06/13 02:23:40;;;;;;;6.00;3.92;;;;;;;19.89;100.00;100307.56;5071133;28;20085;-63
2022/06/13 02:26:11;;;;;;;10.70;3.63;;;;;;;20.00;100.00;100333.88;5071300;28;20055;-63
2022/06/13 02:28:56;;;;;;;6.70;4.30;;;;;;;19.92;100.00;100331.66;5062619;28;20030;-62
2022/06/13 02:31:40;;;;;;;5.47;3.58;;;;;;;19.79;100.00;100330.72;5034043;28;20056;-62
2022/06/13 02:34:31;;;;;;;6.93;3.80;;;;;;;19.66;100.00;100332.50;5035092;28;20029;-62
2022/06/13 02:37:14;;;;;;;5.82;2.50;;;;;;;19.53;100.00;100332.44;5053009;28;20029;-62
2022/06/13 02:40:01;;;;;;;6.50;2.70;;;;;;;19.34;100.00;100320.22;5034867;28;20507;-62
2022/06/13 02:42:43;;;;;;;8.02;2.53;;;;;;;19.26;100.00;100325.16;5053767;28;20035;-62
2022/06/13 02:45:22;;;;;;;13.52;3.00;;;;;;;19.14;100.00;100334.06;5054716;28;20075;-63
2022/06/13 02:48:16;;;;;;;5.13;1.70;;;;;;;18.96;100.00;100325.25;5054530;28;20108;-63
2022/06/13 02:50:41;;;;;;;5.50;1.88;;;;;;;18.86;100.00;100331.31;5054092;28;20512;-63
2022/06/13 02:53:14;;;;;;;4.95;2.03;;;;;;;18.83;100.00;100328.81;5054619;28;20025;-63
2022/06/13 02:55:45;;;;;;;3.63;1.73;;;;;;;18.72;100.00;100321.38;5054467;28;20036;-63
2022/06/13 02:58:25;;;;;;;2.95;1.77;;;;;;;18.65;100.00;100329.94;5050258;28;20025;-64
2022/06/13 03:01:13;;;;;;;3.15;1.42;;;;;;;18.40;100.00;100329.69;5034363;28;20049;-63
2022/06/13 03:03:38;;;;;;;3.65;1.92;;;;;;;18.28;100.00;100325.84;5034734;28;20032;-63
2022/06/13 03:06:25;;;;;;;9.18;1.90;;;;;;;18.24;100.00;100330.53;5032420;28;20108;-63
2022/06/13 03:08:51;;;;;;;4.47;2.15;;;;;;;18.17;100.00;100337.25;5032212;28;20452;-63
2022/06/13 03:11:34;;;;;;;6.47;2.00;;;;;;;18.19;100.00;100338.03;5032436;28;20029;-63
2022/06/13 03:14:14;;;;;;;;;;;;;;;18.22;100.00;100337.84;5032937;28;20057;-63
2022/06/13 03:16:55;;;;;;;5.20;1.73;;;;;;;18.10;100.00;100335.00;5040347;28;20283;-63
2022/06/13 03:19:47;;;;;;;3.70;1.58;;;;;;;18.12;100.00;100351.94;5072366;28;20099;-63
2022/06/13 03:22:40;;;;;;;3.03;1.73;;;;;;;18.03;100.00;100345.25;5073527;28;20064;-63
2022/06/13 03:25:27;;;;;;;4.85;2.15;;;;;;;18.20;100.00;100355.06;5073837;28;20484;-63
2022/06/13 03:28:01;;;;;;;5.22;1.90;;;;;;;18.16;100.00;100353.47;5073996;28;20115;-63
2022/06/13 03:30:29;;;;;;;;;;;;;;;18.24;100.00;100364.69;5035767;28;20018;-63
2022/06/13 03:35:48;;;;;;;3.60;1.73;;;;;;;18.14;100.00;100368.84;5033878;28;20155;-63
2022/06/13 03:38:19;;;;;;;4.60;2.53;;;;;;;18.10;100.00;100368.16;5033857;28;20124;-63
2022/06/13 03:40:50;;;;;;;3.03;1.63;;;;;;;18.01;100.00;100363.31;5033599;28;20512;-63
2022/06/13 03:43:30;;;;;;;3.72;1.75;;;;;;;18.03;100.00;100364.09;5032658;28;20464;-63
2022/06/13 03:46:11;;;;;;;2.67;1.63;;;;;;;18.05;100.00;100375.66;5033693;28;20021;-63
2022/06/13 03:48:49;;;;;;;3.25;1.55;;;;;;;17.99;100.00;100367.91;5033632;28;20076;-63
2022/06/13 03:51:24;;;;;;;4.82;2.45;;;;;;;18.03;100.00;100374.00;5033801;28;20065;-63
2022/06/13 03:53:55;;;;;;;7.18;1.75;;;;;;;18.01;100.00;100382.16;5034637;28;20148;-63
2022/06/13 03:56:26;;;;;;;4.03;1.80;;;;;;;17.98;100.00;100379.66;5052421;28;20222;-63
2022/06/13 03:59:25;;;;;;;4.53;1.70;;;;;;;17.96;100.00;100383.38;5047180;28;20037;-63
2022/06/13 04:02:12;;;;;;;4.90;1.85;;;;;;;17.87;100.00;100389.28;5033283;28;20053;-63
2022/06/13 04:04:43;;;;;;;4.85;1.60;;;;;;;17.80;100.00;100394.16;5031963;28;20033;-63
2022/06/13 04:07:09;;;;;;;2.17;1.50;;;;;;;17.79;100.00;100396.94;5031501;28;20036;-63
2022/06/13 04:09:39;;;;;;;7.70;1.70;;;;;;;17.74;100.00;100405.22;5031896;28;20026;-63
2022/06/13 04:12:17;;;;;;;3.25;1.52;;;;;;;17.72;100.00;100414.38;5031842;28;20453;-63
2022/06/13 04:15:01;;;;;;;7.63;1.80;;;;;;;17.65;100.00;100416.53;5031763;28;20396;-63
2022/06/13 04:17:32;;;;;;;5.80;2.03;;;;;;;17.62;100.00;100411.31;5052313;28;20031;-63
2022/06/13 04:20:33;;;;;;;5.82;1.75;;;;;;;17.59;100.00;100413.31;5072924;28;20086;-63
2022/06/13 04:23:38;;;;;;;5.47;2.13;;;;;;;17.50;100.00;100406.59;5072818;28;20479;-63
2022/06/13 04:26:14;;;;;;;3.25;1.80;;;;;;;17.49;100.00;100410.25;5055416;28;20032;-63
2022/06/13 04:28:39;;;;;;;5.50;2.20;;;;;;;17.44;100.00;100406.91;5030512;28;20470;-63
2022/06/13 04:31:07;;;;;;;6.25;2.03;;;;;;;17.45;100.00;100408.66;5030818;28;20021;-63
2022/06/13 04:33:38;;;;;;;7.00;1.95;;;;;;;17.49;100.00;100414.75;5030887;28;20433;-63
2022/06/13 04:36:07;;;;;;;4.22;1.83;;;;;;;17.41;100.00;100407.09;5030439;28;20021;-63
2022/06/13 04:38:34;;;;;;;5.93;2.42;;;;;;;17.50;100.00;100419.16;5030875;28;20144;-63
2022/06/13 04:41:04;;;;;;;3.60;1.90;;;;;;;17.57;100.00;100418.78;5043336;28;20039;-63
2022/06/13 04:43:36;;;;;;;4.45;1.73;;;;;;;17.68;100.00;100424.41;5052484;28;20024;-63
2022/06/13 04:46:08;;;;;;;6.82;2.38;;;;;;;17.78;100.00;100424.78;5051942;28;20029;-63
2022/06/13 04:48:36;;;;;;;3.60;2.08;;;;;;;17.89;100.00;100433.16;5051878;28;20020;-63
2022/06/13 04:51:08;;;;;;;5.13;2.05;;;;;;;17.93;100.00;100432.00;5052156;28;20064;-63
2022/06/13 04:54:01;;;;;;;11.65;3.00;;;;;;;17.96;100.00;100435.41;5052052;28;20108;-63
2022/06/13 04:56:27;;;;;;;4.00;2.10;;;;;;;18.02;100.00;100436.88;5052169;28;20032;-63
2022/06/13 04:58:55;;;;;;;3.95;2.75;;;;;;;18.09;100.00;100436.44;5045881;28;20029;-63
2022/06/13 05:01:30;;;;;;;4.43;2.20;;;;;;;18.12;100.00;100438.94;5032062;28;20029;-63
2022/06/13 05:03:58;;;;;;;4.50;2.10;;;;;;;18.13;100.00;100435.31;5032143;28;20025;-63
2022/06/13 05:06:31;;;;;;;4.28;1.88;;;;;;;18.23;100.00;100446.44;5038247;28;20079;-63
2022/06/13 05:09:03;;;;;;;5.00;2.03;;;;;;;18.25;100.00;100450.75;5051847;28;20079;-63
2022/06/13 05:11:35;;;;;;;4.28;2.38;;;;;;;18.27;100.00;100459.63;5051314;28;20036;-63
2022/06/13 05:14:14;;;;;;;4.78;2.15;;;;;;;18.35;100.00;100457.38;5050712;28;20032;-63
2022/06/13 05:16:59;;;;;;;5.13;2.35;;;;;;;18.40;100.00;100459.84;5054336;28;20151;-63
2022/06/13 05:19:34;;;;;;;4.57;2.35;;;;;;;18.45;100.00;100473.03;5070404;28;20485;-63
2022/06/13 05:22:18;;;;;;;8.02;2.70;;;;;;;18.53;100.00;100476.16;5071389;28;20499;-63
2022/06/13 05:24:53;;;;;;;;;;;;;;;18.67;100.00;100474.41;5072221;28;20089;-63
2022/06/13 05:27:19;;;;;;;7.53;2.17;;;;;;;18.77;100.00;100485.50;5071757;28;19954;-63
2022/06/13 05:29:44;;;;;;;2.88;2.00;;;;;;;18.80;100.00;100488.00;5044644;28;20033;-63
2022/06/13 05:32:13;;;;;;;7.57;2.42;;;;;;;18.91;100.00;100483.72;5031562;28;20422;-63
2022/06/13 05:34:41;;;;;;;4.82;2.30;;;;;;;19.05;100.00;100485.59;5031783;28;20807;-63
2022/06/13 05:37:08;;;;;;;6.07;2.22;;;;;;;19.14;100.00;100494.00;5031557;28;20115;-63
2022/06/13 05:39:35;;;;;;;7.75;2.10;;;;;;;19.22;100.00;100504.34;5031805;28;20545;-63
2022/06/13 05:42:01;;;;;;;4.18;2.28;;;;;;;19.32;99.63;100506.41;5031570;28;20025;-63
2022/06/13 05:44:26;;;;;;;5.28;2.00;;;;;;;19.37;98.30;100503.47;5031672;28;20033;-63
2022/06/13 05:46:52;;;;;;;4.03;2.55;;;;;;;19.50;98.47;100507.16;5031310;28;20029;-63
2022/06/13 05:49:18;;;;;;;4.03;2.15;;;;;;;19.63;97.56;100510.84;5038334;28;20112;-63
2022/06/13 05:51:44;;;;;;;4.32;2.20;;;;;;;19.75;96.10;100504.69;5051341;28;20029;-63
2022/06/13 05:54:10;;;;;;;6.47;2.40;;;;;;;19.82;96.01;100516.81;5051791;28;20100;-63
2022/06/13 05:56:36;;;;;;;8.65;2.45;;;;;;;19.91;95.15;100520.78;5051008;28;20055;-63
2022/06/13 05:59:02;;;;;;;5.55;2.55;;;;;;;20.03;94.30;100504.66;5043798;28;20432;-63
2022/06/13 06:01:27;;;;;;;5.70;2.33;;;;;;;20.17;92.78;100517.31;5031059;28;20022;-63
2022/06/13 06:03:53;;;;;;;5.07;2.35;;;;;;;20.35;91.63;100522.41;5031511;28;20068;-63
2022/06/13 06:06:21;;;;;;;4.40;1.88;;;;;;;20.49;91.04;100522.38;5033208;28;20029;-63
2022/06/13 06:08:47;;;;;;;6.80;2.58;;;;;;;20.60;88.84;100527.09;5033972;28;20041;-63
2022/06/13 06:11:13;;;;;;;7.88;2.97;;;;;;;20.62;89.42;100531.44;5033691;28;20029;-63
2022/06/13 06:13:38;;;;;;;5.07;2.83;;;;;;;20.72;89.03;100537.97;5033914;28;20037;-63
2022/06/13 06:16:04;;;;;;;6.32;2.15;;;;;;;20.86;87.84;100534.34;5033578;28;20127;-63
2022/06/13 06:18:29;;;;;;;5.40;2.38;;;;;;;21.03;86.14;100530.56;5072033;28;20476;-63
2022/06/13 06:20:55;;;;;;;4.72;2.47;;;;;;;21.10;85.56;100532.75;5074259;28;20020;-63
2022/06/13 06:23:21;;;;;;;6.72;3.05;;;;;;;21.22;84.63;100522.94;5075188;28;20103;-63
2022/06/13 06:25:49;;;;;;;5.68;2.50;;;;;;;21.40;83.17;100532.50;5075151;28;20361;-63
2022/06/13 06:28:18;;;;;;;4.78;2.53;;;;;;;21.62;82.69;100536.31;5072717;28;20434;-63
2022/06/13 06:30:44;;;;;;;6.60;2.72;;;;;;;21.75;80.96;100552.56;5034710;28;20029;-63
2022/06/13 06:33:09;;;;;;;9.20;2.75;;;;;;;21.83;79.81;100555.63;5046473;28;20051;-63
2022/06/13 06:35:35;;;;;;;4.07;2.47;;;;;;;21.94;79.19;100553.06;5055104;28;20025;-64
2022/06/13 06:38:01;;;;;;;7.85;2.95;;;;;;;22.00;80.27;100556.19;5054770;28;20108;-64
2022/06/13 06:40:28;;;;;;;5.35;2.90;;;;;;;22.07;80.17;100554.78;5054826;28;20049;-64
2022/06/13 06:42:54;;;;;;;5.32;2.90;;;;;;;22.27;79.58;100556.06;5051334;28;20373;-64
2022/06/13 06:45:20;;;;;;;4.80;2.80;;;;;;;22.39;76.39;100566.00;5054296;28;20029;-64
2022/06/13 06:47:46;;;;;;;7.10;2.83;;;;;;;22.37;74.36;100562.56;5054152;28;20112;-64
2022/06/13 06:50:13;;;;;;;5.50;2.42;;;;;;;22.45;73.81;100565.59;5054569;28;20037;-64
2022/06/13 06:52:40;;;;;;;7.65;2.40;;;;;;;22.42;68.11;100563.06;5054028;28;20370;-64
2022/06/13 07:00:37;;;;;;;7.97;3.25;;;;;;;22.69;73.13;100563.81;5034626;28;20088;-64
2022/06/13 07:03:03;;;;;;;8.18;2.85;;;;;;;22.78;70.04;100565.88;5034310;28;20457;-64
2022/06/13 07:05:28;;;;;;;5.82;2.95;;;;;;;22.75;67.13;100574.19;5034359;28;20083;-64
2022/06/13 07:07:54;;;;;;;7.40;2.78;;;;;;;22.75;68.67;100568.78;5034114;28;20053;-63
2022/06/13 07:10:19;;;;;;;6.93;2.97;;;;;;;22.64;69.46;100571.41;5034249;28;20032;-63
2022/06/13 07:12:45;;;;;;;7.40;2.90;;;;;;;22.68;70.54;100567.53;5036665;28;20112;-63
2022/06/13 07:15:13;;;;;;;4.78;2.90;;;;;;;22.76;64.45;100573.25;5034477;28;20400;-63
2022/06/13 07:17:39;;;;;;;6.93;2.67;;;;;;;23.04;66.73;100567.50;5057827;28;20029;-63
2022/06/13 07:20:05;;;;;;;7.07;3.50;;;;;;;23.23;69.72;100575.97;5074116;28;20032;-64
2022/06/13 07:22:30;;;;;;;4.65;2.35;;;;;;;23.59;69.04;100576.91;5074183;28;20029;-64
2022/06/13 07:24:56;;;;;;;5.72;2.97;;;;;;;23.85;66.02;100576.59;5074417;28;20109;-64
2022/06/13 07:27:21;;;;;;;5.47;2.42;;;;;;;24.09;67.13;100576.53;5073736;28;20116;-64
2022/06/13 07:29:47;;;;;;;7.90;2.88;;;;;;;24.21;67.51;100576.44;5046161;28;20057;-64
2022/06/13 07:32:18;;;;;;;6.43;2.90;;;;;;;24.23;65.63;100570.88;5033959;28;20022;-64
2022/06/13 07:34:45;;;;;;;7.25;3.15;;;;;;;24.47;64.78;100571.63;5034031;28;20025;-64
2022/06/13 07:38:16;;;;;;;5.63;2.88;;;;;;;24.73;62.16;100570.38;5033781;28;20036;-64
2022/06/13 07:40:00;;;;;;;6.03;2.92;;;;;;;25.25;62.25;100567.78;5033766;28;20073;-64
2022/06/13 07:42:25;;;;;;;8.02;3.00;;;;;;;25.50;60.77;100570.19;5033579;28;20549;-64
2022/06/13 07:44:51;;;;;;;9.65;2.90;;;;;;;25.52;58.19;100568.19;5033722;28;20025;-64
2022/06/13 07:47:20;;;;;;;7.18;3.00;;;;;;;25.80;58.71;100562.09;5033383;28;20108;-64
2022/06/13 07:49:45;;;;;;;6.07;3.25;;;;;;;26.27;57.04;100577.06;5033564;28;20080;-64
2022/06/13 07:52:11;;;;;;;6.25;2.50;;;;;;;26.57;57.02;100581.66;5032291;28;20935;-64
2022/06/13 07:54:36;;;;;;;7.22;2.67;;;;;;;26.52;55.84;100586.66;5033946;28;20033;-64
2022/06/13 07:57:02;;;;;;;5.13;1.90;;;;;;;26.92;50.08;100584.78;5050721;28;20024;-64
2022/06/13 07:59:30;;;;;;;7.97;2.08;;;;;;;27.31;48.68;100569.38;5040529;28;20032;-64
2022/06/13 08:01:58;;;;;;;6.07;2.20;;;;;;;27.31;46.56;100575.72;5031861;28;20044;-65
2022/06/13 08:04:23;;;;;;;6.22;2.35;;;;;;;27.73;50.46;100574.41;5031894;28;20030;-64
2022/06/13 08:06:48;;;;;;;4.45;2.28;;;;;;;28.07;51.27;100581.16;5031881;28;20079;-64
2022/06/13 08:09:14;;;;;;;4.22;2.28;;;;;;;28.04;48.81;100578.72;5031386;28;20124;-64
2022/06/13 08:11:46;;;;;;;5.57;2.15;;;;;;;27.93;44.96;100584.34;5031751;28;20462;-64
2022/06/13 08:14:12;;;;;;;6.10;2.90;;;;;;;27.76;46.06;100587.78;5031623;28;20128;-64
2022/06/13 08:16:39;;;;;;;4.90;2.72;;;;;;;27.76;49.66;100587.78;5039151;28;20048;-64
2022/06/13 08:19:04;;;;;;;5.65;3.42;;;;;;;27.45;50.79;100583.47;5071470;28;20020;-64
2022/06/13 08:21:31;;;;;;;6.50;2.80;;;;;;;27.76;51.63;100584.22;5072726;28;20025;-64
2022/06/13 08:23:57;;;;;;;3.83;2.03;;;;;;;28.02;50.87;100590.81;5072026;28;20032;-64
2022/06/13 08:26:22;;;;;;;4.05;2.20;;;;;;;28.28;49.30;100590.03;5069956;28;20032;-64
2022/06/13 08:28:48;;;;;;;6.20;2.30;;;;;;;28.67;47.54;100589.91;5058918;28;20099;-64
2022/06/13 08:31:17;;;;;;;5.22;2.10;;;;;;;28.78;44.94;100592.47;5048272;28;20472;-64
2022/06/13 08:33:43;;;;;;;4.82;2.03;;;;;;;29.01;46.68;100594.63;5051171;28;20052;-64
2022/06/13 08:36:10;;;;;;;5.85;2.13;;;;;;;29.22;45.32;100595.28;5051505;28;20063;-64
2022/06/13 08:38:36;;;;;;;5.75;2.35;;;;;;;29.34;45.64;100601.41;5051734;28;20377;-64
2022/06/13 08:41:20;;;;;;;6.05;2.50;;;;;;;28.96;44.08;100607.06;5051877;28;20025;-64
2022/06/13 08:44:06;;;;;;;8.00;2.10;;;;;;;28.47;43.20;100599.19;5050199;28;20029;-64
2022/06/13 08:46:48;;;;;;;5.85;1.90;;;;;;;28.45;42.47;100596.63;5030621;28;20164;-64
2022/06/13 08:49:36;;;;;;;4.30;1.70;;;;;;;27.91;42.08;100608.25;5048470;28;20496;-64
2022/06/13 08:52:27;;;;;;;6.30;2.05;;;;;;;27.77;42.31;100605.94;5050376;28;20059;-64
2022/06/13 08:55:04;;;;;;;4.78;2.28;;;;;;;28.21;45.75;100605.31;5050271;28;20028;-64
2022/06/13 08:57:33;;;;;;;5.57;1.90;;;;;;;27.75;47.11;100602.47;5050184;28;20021;-64
2022/06/13 09:00:13;;;;;;;10.07;2.40;;;;;;;27.08;48.65;100609.72;5035333;28;20021;-64
2022/06/13 09:02:46;;;;;;;4.93;2.30;;;;;;;27.13;49.41;100607.44;5031539;28;20163;-64
2022/06/13 09:05:46;;;;;;;7.53;2.10;;;;;;;26.76;50.57;100606.31;5041039;28;20037;-64
2022/06/13 09:08:41;;;;;;;6.25;2.53;;;;;;;26.37;52.46;100615.28;5049015;28;20139;-64
2022/06/13 09:11:15;;;;;;;4.22;2.40;;;;;;;26.05;53.73;100617.25;5049613;28;20033;-64
2022/06/13 09:13:48;;;;;;;5.25;2.10;;;;;;;25.90;52.42;100612.09;5049731;28;20025;-63
2022/06/13 09:16:35;;;;;;;7.60;2.33;;;;;;;25.86;46.41;100613.34;5051479;28;20056;-64
2022/06/13 09:19:12;;;;;;;5.97;2.50;;;;;;;26.73;50.88;100617.50;5071963;28;20495;-63
2022/06/13 09:21:44;;;;;;;4.25;2.30;;;;;;;27.44;43.47;100606.38;5071698;28;20020;-63
2022/06/13 09:24:24;;;;;;;5.80;2.88;;;;;;;28.00;41.33;100612.84;5071747;28;20493;-63
2022/06/13 09:27:00;;;;;;;3.40;1.90;;;;;;;28.59;42.60;100609.84;5071655;28;20169;-63
2022/06/13 09:29:32;;;;;;;4.55;2.13;;;;;;;28.54;41.86;100605.81;5049874;28;20028;-63
2022/06/13 09:32:03;;;;;;;5.97;2.10;;;;;;;28.47;42.05;100608.25;5031894;28;20033;-64
2022/06/13 09:34:31;;;;;;;6.18;2.45;;;;;;;28.69;42.98;100605.19;5031687;28;20046;-63
2022/06/13 09:37:09;;;;;;;5.65;1.92;;;;;;;28.70;42.81;100606.06;5031792;28;20029;-63
2022/06/13 09:39:35;;;;;;;4.25;1.83;;;;;;;28.48;41.80;100607.25;5030468;28;20022;-63
2022/06/13 09:42:23;;;;;;;5.40;2.28;;;;;;;28.57;42.19;100606.38;5031858;28;20032;-63
2022/06/13 09:45:10;;;;;;;5.85;1.92;;;;;;;28.81;42.28;100603.13;5031756;28;20515;-63
2022/06/13 09:47:53;;;;;;;6.22;1.80;;;;;;;28.92;41.49;100595.56;5031499;28;20445;-63
2022/06/13 09:50:32;;;;;;;5.65;2.15;;;;;;;29.25;42.73;100607.78;5045741;28;20043;-64
2022/06/13 09:53:21;;;;;;;4.70;2.00;;;;;;;29.35;41.74;100605.84;5051593;28;20025;-64
2022/06/13 09:56:00;;;;;;;4.30;2.10;;;;;;;29.13;40.42;100611.75;5050817;28;20106;-63
2022/06/13 09:59:04;;;;;;;4.32;1.60;;;;;;;29.42;39.75;100615.19;5048676;28;20086;-63
2022/06/13 10:01:32;;;;;;;;;;;;;;;29.57;36.94;100602.66;5028512;28;20380;-63
2022/06/13 10:04:35;;;;;;;3.65;1.80;;;;;;;29.53;40.34;100590.25;5029390;28;20465;-63
2022/06/13 10:07:18;;;;;;;5.07;1.70;;;;;;;29.57;37.91;100605.41;5029469;28;20032;-63
2022/06/13 10:09:58;;;;;;;3.78;1.40;;;;;;;29.67;40.11;100597.13;5028616;28;20029;-63
2022/06/13 10:12:31;;;;;;;5.38;1.60;;;;;;;30.00;41.05;100599.97;5029823;28;20027;-63
2022/06/13 10:15:10;;;;;;;4.50;1.70;;;;;;;29.79;38.65;100599.44;5030182;28;20017;-63
2022/06/13 10:17:41;;;;;;;4.43;1.67;;;;;;;29.31;40.78;100597.06;5053596;28;20060;-63
2022/06/13 10:20:21;;;;;;;4.60;1.80;;;;;;;28.43;41.08;100594.00;5069653;28;20154;-63
2022/06/13 10:23:18;;;;;;;4.97;1.50;;;;;;;28.66;41.65;100599.16;5070450;28;20027;-63
2022/06/13 10:25:52;;;;;;;5.50;2.50;;;;;;;29.48;38.76;100595.34;5033652;28;20036;-64
2022/06/13 10:28:51;;;;;;;3.20;1.23;;;;;;;29.63;39.56;100589.19;5031034;28;20021;-63
2022/06/13 10:31:50;;;;;;;4.57;1.92;;;;;;;29.84;36.87;100594.34;5031070;28;20017;-63
2022/06/13 10:34:41;;;;;;;2.92;1.58;;;;;;;30.03;36.42;100594.19;5031091;28;20022;-63
2022/06/13 10:37:27;;;;;;;6.07;2.22;;;;;;;30.09;38.10;100593.53;5031170;28;20033;-63
2022/06/13 10:39:58;;;;;;;2.95;1.20;;;;;;;30.37;35.54;100595.13;5030720;28;20028;-63
2022/06/13 10:42:27;;;;;;;3.72;1.27;;;;;;;30.45;36.75;100595.16;5044551;28;20013;-63
2022/06/13 10:44:53;;;;;;;3.30;1.20;;;;;;;30.49;35.00;100585.59;5047390;28;20157;-63
2022/06/13 10:47:21;;;;;;;3.67;0.90;;;;;;;30.79;34.18;100598.81;5048686;28;20129;-63
2022/06/13 10:49:53;;;;;;;4.78;1.38;;;;;;;30.77;35.70;100595.34;5048739;28;20390;-63
2022/06/13 10:52:23;;;;;;;5.73;1.47;;;;;;;30.38;36.44;100596.84;5051805;28;20103;-63
2022/06/13 10:54:54;;;;;;;3.80;1.20;;;;;;;29.58;38.89;100598.88;5052415;28;20017;-63
2022/06/13 10:57:26;;;;;;;5.53;1.67;;;;;;;29.64;40.00;100600.97;5052660;28;20025;-63
2022/06/13 11:00:19;;;;;;;3.42;1.33;;;;;;;29.74;38.93;100596.31;5038154;28;20034;-63
2022/06/13 11:02:44;;;;;;;4.32;1.40;;;;;;;29.72;33.39;100590.13;5033279;28;20481;-63
2022/06/13 11:05:17;;;;;;;6.45;1.33;;;;;;;29.97;33.94;100588.47;5033306;28;20022;-63
2022/06/13 11:07:47;;;;;;;4.43;1.30;;;;;;;30.28;35.94;100593.34;5034508;28;20072;-63
2022/06/13 11:10:34;;;;;;;4.43;1.25;;;;;;;30.94;36.09;100587.22;5034949;28;20455;-63
2022/06/13 11:13:02;;;;;;;3.13;1.40;;;;;;;31.17;36.55;100596.56;5043235;28;20033;-63
2022/06/13 11:24:01;;;;;;;2.42;1.00;;;;;;;31.52;34.09;100585.31;5074011;28;20090;-63
2022/06/13 11:29:22;;;;;;;3.33;1.02;;;;;;;31.55;31.17;100585.00;5053173;28;20040;-64
2022/06/13 11:31:50;;;;;;;4.22;1.10;;;;;;;31.75;30.82;100581.72;5034454;28;20819;-64
2022/06/13 11:34:24;;;;;;;5.50;1.35;;;;;;;32.05;30.68;100582.94;5034070;28;20052;-64
2022/06/13 11:37:17;;;;;;;4.45;0.98;;;;;;;32.03;33.45;100580.38;5033341;28;20063;-64
2022/06/13 11:39:46;;;;;;;3.08;1.10;;;;;;;32.10;33.67;100580.53;5032837;28;20049;-63
2022/06/13 11:42:19;;;;;;;2.97;0.98;;;;;;;31.97;35.34;100578.31;5033094;28;20025;-64
2022/06/13 11:44:50;;;;;;;2.47;0.70;;;;;;;32.18;31.16;100577.78;5034296;28;20025;-64
2022/06/13 11:47:17;;;;;;;2.13;0.82;;;;;;;31.50;31.55;100581.88;5051914;28;20040;-63
2022/06/13 11:49:46;;;;;;;3.53;1.77;;;;;;;31.39;32.63;100568.44;5052848;28;20029;-63
2022/06/13 11:52:11;;;;;;;2.10;0.90;;;;;;;31.48;29.92;100570.19;5052969;28;20421;-63
2022/06/13 11:54:51;;;;;;;1.63;0.90;;;;;;;31.88;32.99;100567.47;5052731;28;20133;-63
2022/06/13 11:57:34;;;;;;;2.58;0.70;;;;;;;32.13;33.00;100578.31;5052934;28;20025;-63
2022/06/13 12:00:12;;;;;;;2.53;0.68;;;;;;;31.94;31.55;100566.81;5037445;28;20148;-63
2022/06/13 12:02:49;;;;;;;3.22;0.98;;;;;;;32.15;31.18;100567.13;5031631;28;20029;-63
2022/06/13 12:05:22;;;;;;;1.88;0.82;;;;;;;32.08;31.85;100560.56;5032271;28;20032;-63
2022/06/13 12:08:04;;;;;;;3.33;1.00;;;;;;;32.09;29.28;100554.91;5032676;28;20045;-64
2022/06/13 12:10:38;;;;;;;1.85;0.82;;;;;;;31.80;30.61;100557.31;5032495;28;20025;-64
2022/06/13 12:13:12;;;;;;;5.30;0.95;;;;;;;31.49;31.25;100553.53;5032859;28;20481;-64